Time;durP1;ratioP1;P1;durP2;ratioP2;P2;SDS_P1;SDS_P2;PMS_P1;PMS_P2;Temp;Humidity;BMP_temperature;BMP_pressure;BME280_temperature;BME280_humidity;BME280_pressure;Samples;Min_cycle;Max_cycle;Signal;HPM_P1;HPM_P2
2022/09/16 00:00:30;;;;;;;3.88;1.02;;;;;;;;;;5054751;28;20032;-68
2022/09/16 00:02:56;;;;;;;6.15;1.25;;;;;;;;;;5055040;28;20029;-68
2022/09/16 00:05:22;;;;;;;4.75;1.05;;;;;;;;;;5055131;28;20066;-67
2022/09/16 00:07:47;;;;;;;5.07;1.13;;;;;;;;;;5054800;28;20072;-70
2022/09/16 00:10:13;;;;;;;4.63;1.13;;;;;;;;;;5054953;28;20100;-69
2022/09/16 00:12:39;;;;;;;4.57;1.20;;;;;;;;;;5054926;28;20033;-72
2022/09/16 00:15:06;;;;;;;7.70;1.30;;;;;;;;;;5054639;28;20029;-70
2022/09/16 00:17:31;;;;;;;4.38;1.10;;;;;;;;;;5054638;28;20059;-68
2022/09/16 00:19:57;;;;;;;10.88;1.30;;;;;;;;;;5054564;28;20076;-68
2022/09/16 00:22:23;;;;;;;11.05;1.50;;;;;;;;;;5054853;28;20535;-68
2022/09/16 00:24:49;;;;;;;5.35;1.55;;;;;;;;;;5054645;28;20033;-71
2022/09/16 00:27:15;;;;;;;5.40;1.38;;;;;;;;;;5054743;28;20025;-69
2022/09/16 00:29:40;;;;;;;10.63;1.50;;;;;;;;;;5054243;28;20032;-69
2022/09/16 00:32:06;;;;;;;9.30;1.10;;;;;;;;;;5054659;28;20096;-72
2022/09/16 00:34:31;;;;;;;7.63;1.10;;;;;;;;;;5054544;28;20187;-68
2022/09/16 00:36:57;;;;;;;9.02;1.60;;;;;;;;;;5054366;28;20403;-69
2022/09/16 00:39:22;;;;;;;7.53;1.10;;;;;;;;;;5054488;28;20033;-71
2022/09/16 00:41:48;;;;;;;10.45;1.90;;;;;;;;;;5054310;28;20040;-69
2022/09/16 00:44:50;;;;;;;8.02;1.42;;;;;;;;;;5053973;28;20025;-68
2022/09/16 00:47:37;;;;;;;9.10;1.23;;;;;;;;;;5054305;28;20036;-69
2022/09/16 00:50:23;;;;;;;9.23;1.48;;;;;;;;;;5049986;28;20037;-71
2022/09/16 00:52:50;;;;;;;5.68;1.63;;;;;;;;;;5054361;28;20426;-69
2022/09/16 00:55:22;;;;;;;8.50;1.20;;;;;;;;;;5054277;28;20032;-69
2022/09/16 00:57:48;;;;;;;8.93;1.17;;;;;;;;;;5052504;28;20017;-72
2022/09/16 01:00:14;;;;;;;5.32;1.25;;;;;;;;;;5043787;28;20031;-68
2022/09/16 01:02:43;;;;;;;6.65;1.48;;;;;;;;;;5042516;28;20378;-72
2022/09/16 01:05:15;;;;;;;7.75;1.40;;;;;;;;;;5042008;28;20059;-68
2022/09/16 01:07:45;;;;;;;5.32;1.30;;;;;;;;;;5043071;28;20488;-69
2022/09/16 01:10:12;;;;;;;4.10;1.00;;;;;;;;;;5042579;28;20037;-68
2022/09/16 01:12:40;;;;;;;7.63;1.02;;;;;;;;;;5040570;28;20029;-69
2022/09/16 01:15:06;;;;;;;6.45;1.48;;;;;;;;;;5042619;28;20033;-69
2022/09/16 01:17:42;;;;;;;11.95;1.50;;;;;;;;;;5043336;28;20032;-68
2022/09/16 01:20:23;;;;;;;6.82;1.13;;;;;;;;;;5043264;28;20048;-69
2022/09/16 01:23:12;;;;;;;6.03;1.60;;;;;;;;;;5044805;28;20543;-72
2022/09/16 01:25:43;;;;;;;5.95;1.23;;;;;;;;;;4981351;28;20043;-68
2022/09/16 01:28:27;;;;;;;10.23;1.23;;;;;;;;;;4980031;28;20031;-71
2022/09/16 01:31:18;;;;;;;4.95;1.75;;;;;;;;;;4982832;28;20492;-72
2022/09/16 01:33:55;;;;;;;8.18;1.65;;;;;;;;;;4980827;28;20050;-69
2022/09/16 01:36:36;;;;;;;12.38;1.52;;;;;;;;;;4981586;28;20039;-69
2022/09/16 01:39:12;;;;;;;5.38;1.30;;;;;;;;;;4982712;28;20023;-69
2022/09/16 01:42:01;;;;;;;9.30;1.67;;;;;;;;;;4981046;28;20050;-68
2022/09/16 01:44:27;;;;;;;7.10;1.50;;;;;;;;;;4974909;28;20034;-68
2022/09/16 01:47:01;;;;;;;6.28;2.47;;;;;;;;;;4972304;28;20465;-69
2022/09/16 01:50:05;;;;;;;7.40;1.25;;;;;;;;;;4972301;28;20050;-68
2022/09/16 01:52:36;;;;;;;6.22;1.42;;;;;;;;;;4969400;28;20137;-72
2022/09/16 01:55:09;;;;;;;6.32;1.20;;;;;;;;;;4972227;28;20031;-69
2022/09/16 01:57:50;;;;;;;4.70;1.40;;;;;;;;;;4972008;28;20175;-68
2022/09/16 02:00:16;;;;;;;6.60;1.25;;;;;;;;;;4972108;28;20030;-71
2022/09/16 02:02:52;;;;;;;6.32;1.25;;;;;;;;;;5004321;28;20041;-68
2022/09/16 02:05:29;;;;;;;8.07;1.73;;;;;;;;;;5033036;28;20471;-69
2022/09/16 02:08:10;;;;;;;5.07;1.20;;;;;;;;;;5032965;28;20033;-69
2022/09/16 02:10:43;;;;;;;8.68;1.52;;;;;;;;;;5032799;28;20467;-72
2022/09/16 02:13:38;;;;;;;5.47;1.30;;;;;;;;;;5032907;28;20367;-72
2022/09/16 02:16:11;;;;;;;13.43;2.05;;;;;;;;;;5030963;28;20116;-73
2022/09/16 02:18:41;;;;;;;5.05;1.45;;;;;;;;;;5032580;28;20056;-73
2022/09/16 02:21:12;;;;;;;7.70;1.63;;;;;;;;;;5037074;28;20033;-72
2022/09/16 02:23:44;;;;;;;6.75;2.13;;;;;;;;;;5052495;28;20393;-71
2022/09/16 02:26:13;;;;;;;11.82;1.80;;;;;;;;;;5052252;28;20112;-73
2022/09/16 02:28:42;;;;;;;8.95;1.42;;;;;;;;;;5052574;28;20375;-73
2022/09/16 02:31:10;;;;;;;14.27;2.90;;;;;;;;;;5052128;28;20501;-73
2022/09/16 02:33:50;;;;;;;5.13;1.30;;;;;;;;;;5052323;28;20438;-72
2022/09/16 02:36:18;;;;;;;;;;;;;;;;;;5052791;28;20025;-73
2022/09/16 02:38:48;;;;;;;5.03;1.02;;;;;;;;;;5052372;28;20292;-73
2022/09/16 02:41:14;;;;;;;;;;;;;;;;;;5052570;28;20446;-72
2022/09/16 02:43:41;;;;;;;6.68;1.40;;;;;;;;;;5052229;28;19957;-72
2022/09/16 02:46:10;;;;;;;4.30;1.40;;;;;;;;;;5052043;28;20028;-73
2022/09/16 02:49:17;;;;;;;4.10;1.23;;;;;;;;;;5052296;28;20036;-73
2022/09/16 02:51:57;;;;;;;7.75;1.23;;;;;;;;;;5052177;28;20065;-73
2022/09/16 02:55:11;;;;;;;6.07;1.30;;;;;;;;;;5051980;28;20486;-72
2022/09/16 02:57:37;;;;;;;6.28;1.52;;;;;;;;;;4990709;28;20038;-73
2022/09/16 03:00:04;;;;;;;7.90;1.35;;;;;;;;;;4990503;28;20057;-72
2022/09/16 03:02:32;;;;;;;6.47;1.40;;;;;;;;;;4990525;28;20046;-66
2022/09/16 03:04:58;;;;;;;6.40;1.55;;;;;;;;;;4973696;28;20031;-69
2022/09/16 03:07:24;;;;;;;6.38;1.52;;;;;;;;;;4990012;28;20029;-73
2022/09/16 03:09:51;;;;;;;10.45;1.67;;;;;;;;;;4989828;28;20150;-72
2022/09/16 03:12:40;;;;;;;7.20;1.38;;;;;;;;;;4973990;28;20034;-72
2022/09/16 03:15:29;;;;;;;6.87;1.60;;;;;;;;;;4990640;28;20038;-72
2022/09/16 03:18:12;;;;;;;5.82;1.50;;;;;;;;;;4990677;28;20034;-73
2022/09/16 03:20:50;;;;;;;8.05;1.73;;;;;;;;;;4988393;28;20403;-72
2022/09/16 03:23:34;;;;;;;6.13;1.80;;;;;;;;;;4971008;28;20038;-68
2022/09/16 03:26:24;;;;;;;4.93;1.63;;;;;;;;;;4970809;28;20027;-69
2022/09/16 03:29:16;;;;;;;3.85;1.50;;;;;;;;;;4970439;28;20043;-69
2022/09/16 03:31:58;;;;;;;7.35;2.13;;;;;;;;;;4971157;28;20416;-72
2022/09/16 03:34:39;;;;;;;6.50;1.92;;;;;;;;;;4993483;28;20395;-73
2022/09/16 03:37:09;;;;;;;9.25;1.77;;;;;;;;;;5035074;28;20025;-69
2022/09/16 03:39:36;;;;;;;4.80;1.80;;;;;;;;;;5034810;28;20022;-73
2022/09/16 03:42:04;;;;;;;10.05;2.10;;;;;;;;;;5035253;28;20394;-69
2022/09/16 03:44:34;;;;;;;5.05;1.50;;;;;;;;;;5035716;28;20049;-69
2022/09/16 03:47:00;;;;;;;7.78;2.10;;;;;;;;;;5035270;28;20026;-69
2022/09/16 03:49:25;;;;;;;11.30;1.90;;;;;;;;;;5034987;28;20037;-72
2022/09/16 03:51:51;;;;;;;9.13;2.08;;;;;;;;;;5034628;28;20021;-69
2022/09/16 03:54:16;;;;;;;4.75;1.50;;;;;;;;;;5033075;28;20043;-69
2022/09/16 03:56:42;;;;;;;4.47;1.40;;;;;;;;;;5034810;28;20063;-70
2022/09/16 03:59:07;;;;;;;5.68;1.48;;;;;;;;;;5035341;28;20022;-70
2022/09/16 04:01:32;;;;;;;4.63;1.60;;;;;;;;;;5034925;28;20065;-72
2022/09/16 04:03:58;;;;;;;6.47;1.65;;;;;;;;;;5034618;28;20021;-69
2022/09/16 04:06:23;;;;;;;8.00;1.83;;;;;;;;;;5034471;28;20075;-72
2022/09/16 04:08:50;;;;;;;6.38;1.65;;;;;;;;;;5034310;28;20029;-68
2022/09/16 04:11:16;;;;;;;6.75;1.60;;;;;;;;;;5034599;28;20456;-72
2022/09/16 04:13:42;;;;;;;6.32;1.60;;;;;;;;;;5034269;28;20045;-68
2022/09/16 04:16:07;;;;;;;10.18;1.60;;;;;;;;;;5034224;28;20080;-68
2022/09/16 04:18:33;;;;;;;7.30;1.55;;;;;;;;;;5034105;28;20025;-69
2022/09/16 04:21:02;;;;;;;8.02;1.52;;;;;;;;;;5038300;28;20098;-68
2022/09/16 04:23:29;;;;;;;7.45;1.65;;;;;;;;;;5054051;28;20072;-69
2022/09/16 04:26:00;;;;;;;6.45;1.75;;;;;;;;;;5053979;28;20170;-71
2022/09/16 04:28:27;;;;;;;5.47;1.45;;;;;;;;;;5053975;28;20155;-73
2022/09/16 04:30:52;;;;;;;6.38;1.85;;;;;;;;;;5054010;28;20032;-67
2022/09/16 04:33:18;;;;;;;9.30;1.65;;;;;;;;;;5053779;28;20020;-66
2022/09/16 04:35:44;;;;;;;5.63;1.52;;;;;;;;;;5053770;28;20497;-66
2022/09/16 04:38:10;;;;;;;8.18;1.73;;;;;;;;;;5053613;28;20033;-67
2022/09/16 04:40:38;;;;;;;14.63;2.35;;;;;;;;;;5053699;28;20033;-67
2022/09/16 04:43:03;;;;;;;4.65;1.33;;;;;;;;;;5053547;28;20774;-67
2022/09/16 04:45:29;;;;;;;7.90;1.80;;;;;;;;;;5053615;28;20024;-66
2022/09/16 04:47:56;;;;;;;4.22;1.30;;;;;;;;;;5053516;28;20040;-68
2022/09/16 04:50:22;;;;;;;6.85;1.70;;;;;;;;;;5053337;28;20049;-66
2022/09/16 04:52:47;;;;;;;6.00;1.30;;;;;;;;;;5053465;28;20056;-70
2022/09/16 04:55:13;;;;;;;11.25;2.00;;;;;;;;;;5053294;28;20194;-67
2022/09/16 04:57:38;;;;;;;7.68;1.98;;;;;;;;;;5053270;28;20031;-67
2022/09/16 05:00:04;;;;;;;3.55;1.40;;;;;;;;;;5053425;28;20037;-66
2022/09/16 05:02:30;;;;;;;5.43;1.95;;;;;;;;;;5053233;28;20033;-68
2022/09/16 05:04:55;;;;;;;4.93;1.50;;;;;;;;;;5053006;28;20363;-67
2022/09/16 05:07:21;;;;;;;7.28;1.55;;;;;;;;;;5053147;28;20025;-66
2022/09/16 05:09:46;;;;;;;9.00;1.67;;;;;;;;;;5053194;28;20082;-69
2022/09/16 05:12:12;;;;;;;8.40;1.67;;;;;;;;;;5053118;28;20524;-67
2022/09/16 05:14:37;;;;;;;6.20;1.35;;;;;;;;;;5052866;28;20386;-68
2022/09/16 05:17:03;;;;;;;3.72;1.55;;;;;;;;;;5053002;28;20160;-68
2022/09/16 05:19:28;;;;;;;5.18;1.20;;;;;;;;;;5052499;28;20505;-66
2022/09/16 05:21:54;;;;;;;6.72;1.20;;;;;;;;;;5052667;28;20025;-67
2022/09/16 05:24:19;;;;;;;3.42;1.02;;;;;;;;;;5052811;28;20035;-67
2022/09/16 05:26:45;;;;;;;4.93;1.27;;;;;;;;;;5052751;28;20478;-67
2022/09/16 05:29:12;;;;;;;4.85;1.48;;;;;;;;;;5052719;28;20112;-68
2022/09/16 05:31:40;;;;;;;7.28;1.30;;;;;;;;;;5052472;28;20025;-67
2022/09/16 05:34:13;;;;;;;5.03;1.75;;;;;;;;;;5052432;28;20489;-69
2022/09/16 05:36:40;;;;;;;6.13;1.33;;;;;;;;;;5052828;28;20033;-73
2022/09/16 05:39:06;;;;;;;4.30;1.35;;;;;;;;;;5052556;28;20032;-68
2022/09/16 05:41:32;;;;;;;4.40;1.30;;;;;;;;;;5052441;28;20029;-70
2022/09/16 05:43:59;;;;;;;5.13;2.00;;;;;;;;;;5052562;28;20029;-70
2022/09/16 05:46:25;;;;;;;6.97;1.30;;;;;;;;;;5052250;28;20040;-68
2022/09/16 05:48:51;;;;;;;2.22;1.08;;;;;;;;;;5052234;28;20028;-70
2022/09/16 05:51:21;;;;;;;4.05;1.38;;;;;;;;;;5052399;28;20021;-70
2022/09/16 05:53:48;;;;;;;8.00;2.00;;;;;;;;;;5052126;28;20091;-71
2022/09/16 05:56:19;;;;;;;3.97;1.42;;;;;;;;;;5051684;28;20028;-70
2022/09/16 05:58:45;;;;;;;7.20;1.90;;;;;;;;;;5052309;28;20112;-71
2022/09/16 06:01:17;;;;;;;6.78;1.40;;;;;;;;;;5052221;28;20182;-69
2022/09/16 06:03:45;;;;;;;6.10;1.30;;;;;;;;;;5051830;28;20108;-70
2022/09/16 06:06:13;;;;;;;5.60;1.33;;;;;;;;;;5052074;28;20029;-70
2022/09/16 06:08:39;;;;;;;7.47;1.80;;;;;;;;;;5051873;28;20033;-71
2022/09/16 06:11:08;;;;;;;4.43;1.50;;;;;;;;;;5052005;28;20440;-70
2022/09/16 06:13:34;;;;;;;7.40;1.80;;;;;;;;;;5051859;28;20033;-71
2022/09/16 06:16:00;;;;;;;6.45;1.15;;;;;;;;;;5051832;28;20029;-69
2022/09/16 06:18:28;;;;;;;7.03;1.45;;;;;;;;;;5051356;28;20025;-71
2022/09/16 06:20:54;;;;;;;5.30;1.25;;;;;;;;;;5051650;28;20048;-71
2022/09/16 06:23:21;;;;;;;12.07;1.30;;;;;;;;;;5051658;28;20465;-72
2022/09/16 06:25:46;;;;;;;5.35;1.30;;;;;;;;;;5051679;28;20032;-69
2022/09/16 06:28:12;;;;;;;5.35;1.40;;;;;;;;;;5051380;28;20377;-71
2022/09/16 06:30:38;;;;;;;4.07;1.40;;;;;;;;;;5051789;28;20373;-67
2022/09/16 06:33:04;;;;;;;5.97;1.65;;;;;;;;;;5051410;28;20033;-70
2022/09/16 06:35:30;;;;;;;4.07;1.52;;;;;;;;;;5051587;28;20032;-68
2022/09/16 06:37:55;;;;;;;3.72;1.20;;;;;;;;;;5051595;28;20104;-71
2022/09/16 06:40:21;;;;;;;3.47;1.15;;;;;;;;;;5051601;28;20481;-71
2022/09/16 06:42:47;;;;;;;4.95;1.10;;;;;;;;;;5051822;28;20021;-71
2022/09/16 06:45:12;;;;;;;5.07;1.20;;;;;;;;;;5051618;28;20028;-71
2022/09/16 06:47:38;;;;;;;4.72;1.20;;;;;;;;;;5051320;28;20028;-70
2022/09/16 06:50:04;;;;;;;4.72;1.40;;;;;;;;;;5051577;28;20055;-70
2022/09/16 06:52:30;;;;;;;4.03;1.10;;;;;;;;;;5051565;28;20108;-71
2022/09/16 06:54:56;;;;;;;3.40;1.10;;;;;;;;;;5051339;28;20533;-71
2022/09/16 06:57:22;;;;;;;6.13;1.10;;;;;;;;;;5051442;28;20112;-70
2022/09/16 06:59:51;;;;;;;5.88;1.50;;;;;;;;;;5051411;28;20029;-68
2022/09/16 07:02:18;;;;;;;5.43;1.33;;;;;;;;;;5050535;28;20141;-69
2022/09/16 07:04:45;;;;;;;3.88;1.25;;;;;;;;;;5047328;28;20083;-70
2022/09/16 07:07:11;;;;;;;6.55;1.85;;;;;;;;;;5055431;28;20036;-69
2022/09/16 07:09:37;;;;;;;3.90;1.20;;;;;;;;;;5055047;28;20025;-67
2022/09/16 07:12:03;;;;;;;7.28;2.42;;;;;;;;;;5054922;28;20029;-69
2022/09/16 07:14:31;;;;;;;6.93;1.42;;;;;;;;;;5054981;28;20098;-70
2022/09/16 07:16:57;;;;;;;6.35;1.30;;;;;;;;;;5054887;28;20528;-71
2022/09/16 07:19:23;;;;;;;4.70;1.27;;;;;;;;;;5054705;28;20069;-71
2022/09/16 07:21:49;;;;;;;4.47;1.23;;;;;;;;;;5054584;28;20085;-69
2022/09/16 07:24:14;;;;;;;6.50;1.77;;;;;;;;;;5054767;28;20488;-72
2022/09/16 07:26:41;;;;;;;12.40;1.70;;;;;;;;;;5054676;28;20025;-70
2022/09/16 07:29:10;;;;;;;5.10;1.58;;;;;;;;;;5054629;28;20437;-70
2022/09/16 07:31:36;;;;;;;5.68;1.63;;;;;;;;;;5054570;28;20029;-69
2022/09/16 07:34:04;;;;;;;6.30;1.70;;;;;;;;;;5054641;28;20028;-71
2022/09/16 07:36:33;;;;;;;6.07;1.20;;;;;;;;;;5054630;28;20110;-67
2022/09/16 07:38:58;;;;;;;6.93;1.42;;;;;;;;;;5054629;28;20139;-67
2022/09/16 07:41:27;;;;;;;8.50;1.55;;;;;;;;;;5054643;28;20040;-67
2022/09/16 07:43:54;;;;;;;4.43;1.20;;;;;;;;;;5054121;28;20033;-66
2022/09/16 07:46:20;;;;;;;5.35;1.40;;;;;;;;;;5054159;28;20060;-67
2022/09/16 07:48:48;;;;;;;4.95;1.30;;;;;;;;;;5053204;28;20493;-67
2022/09/16 07:51:16;;;;;;;8.52;1.50;;;;;;;;;;5054055;28;20058;-67
2022/09/16 07:53:42;;;;;;;3.50;1.33;;;;;;;;;;5054180;28;20108;-67
2022/09/16 07:56:17;;;;;;;9.00;1.70;;;;;;;;;;5054256;28;20104;-66
2022/09/16 07:58:44;;;;;;;8.38;1.45;;;;;;;;;;5054042;28;20021;-67
2022/09/16 08:01:11;;;;;;;7.47;1.40;;;;;;;;;;5054090;28;20469;-66
2022/09/16 08:03:38;;;;;;;4.93;1.25;;;;;;;;;;5054316;28;20061;-67
2022/09/16 08:06:15;;;;;;;5.97;1.73;;;;;;;;;;5053913;28;20029;-67
2022/09/16 08:08:41;;;;;;;6.78;1.58;;;;;;;;;;5054236;28;20048;-68
2022/09/16 08:11:08;;;;;;;6.43;1.45;;;;;;;;;;5052627;28;20112;-70
2022/09/16 08:13:35;;;;;;;4.20;1.20;;;;;;;;;;5048503;28;20029;-67
2022/09/16 08:16:04;;;;;;;5.63;1.48;;;;;;;;;;5038592;28;20555;-68
2022/09/16 08:18:29;;;;;;;7.00;1.08;;;;;;;;;;5054147;28;20043;-67
2022/09/16 08:20:55;;;;;;;6.10;1.63;;;;;;;;;;5054391;28;20045;-68
2022/09/16 08:23:21;;;;;;;8.75;1.42;;;;;;;;;;5054789;28;20040;-67
2022/09/16 08:25:46;;;;;;;7.10;1.45;;;;;;;;;;5054548;28;20393;-68
2022/09/16 08:28:14;;;;;;;3.60;1.30;;;;;;;;;;5054279;28;20029;-68
2022/09/16 08:30:40;;;;;;;6.43;1.70;;;;;;;;;;5054529;28;20382;-67
2022/09/16 08:33:06;;;;;;;5.22;1.50;;;;;;;;;;5054465;28;20385;-68
2022/09/16 08:35:31;;;;;;;4.20;1.05;;;;;;;;;;5054587;28;20021;-67
2022/09/16 08:37:58;;;;;;;4.63;1.45;;;;;;;;;;5054197;28;20033;-67
2022/09/16 08:40:24;;;;;;;4.78;1.30;;;;;;;;;;5054331;28;20413;-67
2022/09/16 08:43:15;;;;;;;9.70;1.73;;;;;;;;;;5054140;28;20079;-67
2022/09/16 08:46:08;;;;;;;6.03;1.58;;;;;;;;;;5054071;28;20478;-67
2022/09/16 08:48:42;;;;;;;7.30;1.15;;;;;;;;;;5054493;28;20106;-67
2022/09/16 08:51:14;;;;;;;5.95;1.65;;;;;;;;;;5053785;28;20021;-67
2022/09/16 08:54:00;;;;;;;6.55;1.38;;;;;;;;;;5054180;28;20063;-68
2022/09/16 08:56:29;;;;;;;4.57;1.15;;;;;;;;;;5053763;28;20169;-67
2022/09/16 08:58:59;;;;;;;7.78;1.40;;;;;;;;;;5053927;28;20086;-67
2022/09/16 09:01:54;;;;;;;6.30;1.13;;;;;;;;;;5053985;28;20024;-67
2022/09/16 09:04:20;;;;;;;5.50;1.35;;;;;;;;;;5051863;28;20436;-69
2022/09/16 09:07:00;;;;;;;8.50;1.10;;;;;;;;;;5053703;28;20033;-68
2022/09/16 09:09:43;;;;;;;6.85;1.45;;;;;;;;;;5053685;28;20092;-67
2022/09/16 09:12:30;;;;;;;5.22;1.30;;;;;;;;;;5053583;28;20033;-67
2022/09/16 09:15:29;;;;;;;6.65;2.03;;;;;;;;;;5053554;28;20056;-67
2022/09/16 09:18:13;;;;;;;7.30;1.40;;;;;;;;;;5053686;28;20033;-67
2022/09/16 09:21:10;;;;;;;10.50;1.60;;;;;;;;;;5053087;28;20053;-69
2022/09/16 09:23:43;;;;;;;9.55;1.50;;;;;;;;;;5053450;28;20032;-71
2022/09/16 09:26:35;;;;;;;3.58;1.20;;;;;;;;;;5053200;28;20222;-70
2022/09/16 09:29:06;;;;;;;6.88;1.50;;;;;;;;;;5053379;28;20029;-71
2022/09/16 09:31:51;;;;;;;4.78;1.10;;;;;;;;;;5052481;28;20423;-72
2022/09/16 09:34:39;;;;;;;8.23;1.25;;;;;;;;;;5053340;28;20063;-69
2022/09/16 09:37:54;;;;;;;8.15;1.13;;;;;;;;;;5052571;28;20553;-71
2022/09/16 09:40:48;;;;;;;5.07;1.48;;;;;;;;;;5047763;28;20037;-71
2022/09/16 09:43:22;;;;;;;6.78;1.10;;;;;;;;;;5053148;28;20130;-71
2022/09/16 09:45:58;;;;;;;9.70;1.42;;;;;;;;;;5053200;28;20498;-72
2022/09/16 09:48:31;;;;;;;5.00;1.10;;;;;;;;;;5053258;28;20029;-72
2022/09/16 09:51:01;;;;;;;4.93;1.20;;;;;;;;;;5053169;28;20474;-72
2022/09/16 09:53:35;;;;;;;4.60;1.00;;;;;;;;;;5052324;28;20033;-72
2022/09/16 09:56:15;;;;;;;5.35;1.23;;;;;;;;;;5052791;28;20029;-67
2022/09/16 09:58:53;;;;;;;5.95;1.42;;;;;;;;;;5053089;28;20406;-72
2022/09/16 10:01:19;;;;;;;6.45;1.77;;;;;;;;;;5052641;28;20095;-71
2022/09/16 10:03:46;;;;;;;6.93;1.55;;;;;;;;;;5052897;28;20025;-70
2022/09/16 10:06:12;;;;;;;6.07;1.50;;;;;;;;;;5052789;28;20100;-70
2022/09/16 10:08:47;;;;;;;4.15;0.88;;;;;;;;;;5052545;28;20533;-71
2022/09/16 10:11:21;;;;;;;7.22;1.65;;;;;;;;;;5052474;28;20025;-72
2022/09/16 10:13:59;;;;;;;5.95;1.05;;;;;;;;;;5052732;28;20033;-71
2022/09/16 10:16:38;;;;;;;7.00;1.60;;;;;;;;;;5052620;28;20039;-70
2022/09/16 10:19:25;;;;;;;6.03;1.35;;;;;;;;;;5052466;28;20056;-68
2022/09/16 10:22:06;;;;;;;10.32;1.35;;;;;;;;;;5052392;28;20057;-67
2022/09/16 10:24:41;;;;;;;9.10;1.42;;;;;;;;;;5052407;28;20457;-71
2022/09/16 10:27:33;;;;;;;8.35;1.83;;;;;;;;;;5052482;28;20032;-72
2022/09/16 10:30:05;;;;;;;5.13;1.15;;;;;;;;;;5053718;28;20029;-71
2022/09/16 10:32:38;;;;;;;10.82;1.55;;;;;;;;;;5072478;28;20039;-71
2022/09/16 10:35:07;;;;;;;7.95;1.25;;;;;;;;;;5068480;28;20029;-67
2022/09/16 10:37:33;;;;;;;9.70;1.17;;;;;;;;;;5052455;28;20021;-67
2022/09/16 10:39:58;;;;;;;11.77;1.50;;;;;;;;;;5052121;28;20029;-68
2022/09/16 10:42:26;;;;;;;3.75;1.05;;;;;;;;;;5052032;28;20025;-72
2022/09/16 10:44:55;;;;;;;3.85;1.20;;;;;;;;;;5052168;28;20442;-70
2022/09/16 10:47:24;;;;;;;8.85;1.67;;;;;;;;;;5052358;28;20025;-71
2022/09/16 10:50:03;;;;;;;10.77;1.58;;;;;;;;;;5051978;28;20032;-66
2022/09/16 10:52:31;;;;;;;6.22;1.40;;;;;;;;;;5050767;28;20250;-71
2022/09/16 10:55:16;;;;;;;4.78;1.08;;;;;;;;;;5052090;28;20356;-70
2022/09/16 10:57:42;;;;;;;4.85;1.00;;;;;;;;;;5052247;28;20413;-73
2022/09/16 11:00:16;;;;;;;5.05;1.17;;;;;;;;;;5051422;28;20013;-67
2022/09/16 11:03:10;;;;;;;3.88;1.00;;;;;;;;;;5052080;28;20351;-68
2022/09/16 11:06:09;;;;;;;5.55;1.30;;;;;;;;;;5053075;28;20112;-68
2022/09/16 11:08:43;;;;;;;6.78;1.10;;;;;;;;;;5052914;28;20044;-73
2022/09/16 11:11:32;;;;;;;5.28;1.00;;;;;;;;;;5060130;28;20025;-73
2022/09/16 11:14:16;;;;;;;5.63;1.30;;;;;;;;;;5057160;28;20064;-68
2022/09/16 11:17:20;;;;;;;4.75;1.10;;;;;;;;;;5040787;28;20497;-72
2022/09/16 11:20:17;;;;;;;10.23;1.30;;;;;;;;;;5058536;28;20037;-71
2022/09/16 11:23:11;;;;;;;7.15;1.55;;;;;;;;;;5055095;28;20413;-68
2022/09/16 11:25:40;;;;;;;9.93;1.30;;;;;;;;;;5059852;28;20032;-68
2022/09/16 11:28:14;;;;;;;4.75;1.15;;;;;;;;;;5067374;28;20024;-69
2022/09/16 11:30:52;;;;;;;7.03;1.25;;;;;;;;;;5040196;28;20051;-69
2022/09/16 11:33:35;;;;;;;9.52;1.63;;;;;;;;;;5062399;28;20107;-71
2022/09/16 11:36:07;;;;;;;6.68;1.50;;;;;;;;;;5066766;28;20028;-68
2022/09/16 11:38:55;;;;;;;4.70;1.02;;;;;;;;;;5055349;28;20040;-71
2022/09/16 11:41:30;;;;;;;8.90;1.75;;;;;;;;;;5051633;28;20021;-69
2022/09/16 11:44:26;;;;;;;5.95;1.27;;;;;;;;;;5049645;28;20095;-69
2022/09/16 11:47:15;;;;;;;6.90;1.50;;;;;;;;;;5050684;28;20542;-67
2022/09/16 11:49:51;;;;;;;6.68;1.23;;;;;;;;;;5050610;28;20037;-70
2022/09/16 11:52:35;;;;;;;6.53;1.00;;;;;;;;;;5050986;28;20535;-69
2022/09/16 11:55:25;;;;;;;6.80;1.15;;;;;;;;;;5054560;28;20033;-68
2022/09/16 11:58:09;;;;;;;10.27;1.55;;;;;;;;;;5053304;28;20505;-68
2022/09/16 12:00:37;;;;;;;4.50;1.00;;;;;;;;;;5053689;28;20435;-71
2022/09/16 12:03:11;;;;;;;6.47;1.20;;;;;;;;;;5053579;28;20079;-70
2022/09/16 12:05:52;;;;;;;3.72;1.02;;;;;;;;;;5053447;28;20029;-68
2022/09/16 12:08:23;;;;;;;3.72;1.17;;;;;;;;;;5053561;28;20569;-67
2022/09/16 12:11:06;;;;;;;5.50;1.00;;;;;;;;;;5052626;28;20033;-67
2022/09/16 12:13:39;;;;;;;6.32;1.10;;;;;;;;;;5055232;28;20025;-67
2022/09/16 12:16:10;;;;;;;6.95;1.20;;;;;;;;;;5055307;28;20029;-68
2022/09/16 12:18:41;;;;;;;26.00;1.75;;;;;;;;;;5055178;28;20362;-67
2022/09/16 12:21:18;;;;;;;5.28;0.95;;;;;;;;;;5054702;28;20072;-67
2022/09/16 12:23:49;;;;;;;5.25;1.13;;;;;;;;;;5055141;28;20362;-67
2022/09/16 12:26:21;;;;;;;4.32;0.93;;;;;;;;;;5054829;28;20025;-67
2022/09/16 12:28:49;;;;;;;5.90;1.15;;;;;;;;;;5054828;28;20064;-71
2022/09/16 12:31:31;;;;;;;6.78;1.10;;;;;;;;;;5053629;28;20021;-68
2022/09/16 12:34:22;;;;;;;8.45;1.20;;;;;;;;;;5054574;28;20529;-67
2022/09/16 12:37:30;;;;;;;6.90;0.95;;;;;;;;;;5054757;28;20060;-67
2022/09/16 12:39:55;;;;;;;5.82;1.05;;;;;;;;;;5054444;28;20037;-71
2022/09/16 12:42:37;;;;;;;6.80;1.10;;;;;;;;;;5054641;28;20035;-69
2022/09/16 12:45:05;;;;;;;3.78;0.90;;;;;;;;;;5054516;28;20033;-69
2022/09/16 12:48:10;;;;;;;5.93;1.20;;;;;;;;;;5054584;28;20060;-67
2022/09/16 12:51:03;;;;;;;7.82;1.08;;;;;;;;;;5054563;28;20493;-67
2022/09/16 12:54:03;;;;;;;4.18;0.82;;;;;;;;;;5054614;28;20048;-71
2022/09/16 12:56:50;;;;;;;4.55;1.02;;;;;;;;;;5032118;28;20041;-68
2022/09/16 12:59:21;;;;;;;7.05;1.38;;;;;;;;;;5032523;28;20113;-71
2022/09/16 13:01:50;;;;;;;5.35;1.13;;;;;;;;;;5032420;28;20029;-73
2022/09/16 13:04:25;;;;;;;3.85;1.02;;;;;;;;;;5031961;28;20116;-68
2022/09/16 13:06:57;;;;;;;4.68;1.00;;;;;;;;;;5032136;28;20037;-72
2022/09/16 13:09:29;;;;;;;2.40;0.88;;;;;;;;;;5032213;28;20517;-72
2022/09/16 13:11:58;;;;;;;4.63;0.73;;;;;;;;;;5032226;28;20033;-72
2022/09/16 13:14:30;;;;;;;4.03;1.00;;;;;;;;;;5032053;28;20094;-72
2022/09/16 13:16:58;;;;;;;6.60;1.20;;;;;;;;;;5032061;28;20128;-72
2022/09/16 13:19:33;;;;;;;6.82;1.00;;;;;;;;;;5031313;28;20344;-72
2022/09/16 13:22:10;;;;;;;3.90;1.20;;;;;;;;;;5032019;28;20475;-72
2022/09/16 13:24:44;;;;;;;2.90;0.80;;;;;;;;;;5032083;28;20524;-73
2022/09/16 13:27:27;;;;;;;5.40;0.70;;;;;;;;;;5016322;28;20048;-71
2022/09/16 13:30:07;;;;;;;3.30;0.90;;;;;;;;;;5032026;28;20063;-69
2022/09/16 13:32:56;;;;;;;4.17;0.80;;;;;;;;;;5020348;28;20042;-74
2022/09/16 13:35:36;;;;;;;3.50;0.98;;;;;;;;;;5033817;28;20037;-74
2022/09/16 13:38:21;;;;;;;2.67;0.80;;;;;;;;;;5033801;28;20478;-70
2022/09/16 13:40:58;;;;;;;8.45;1.05;;;;;;;;;;5033806;28;20112;-72
2022/09/16 13:43:29;;;;;;;2.53;0.85;;;;;;;;;;5033757;28;20033;-70
2022/09/16 13:46:27;;;;;;;6.68;1.55;;;;;;;;;;5033450;28;20049;-69
2022/09/16 13:49:03;;;;;;;5.90;1.20;;;;;;;;;;5033124;28;20045;-73
2022/09/16 13:51:30;;;;;;;4.35;0.68;;;;;;;;;;5033497;28;20220;-67
2022/09/16 13:54:03;;;;;;;3.60;0.90;;;;;;;;;;5033257;28;20099;-70
2022/09/16 13:56:46;;;;;;;3.38;1.00;;;;;;;;;;5033366;28;20541;-71
2022/09/16 13:59:20;;;;;;;6.97;0.90;;;;;;;;;;5033431;28;20108;-70
2022/09/16 14:02:14;;;;;;;3.75;0.88;;;;;;;;;;5033010;28;20036;-67
2022/09/16 14:04:53;;;;;;;6.28;0.80;;;;;;;;;;5033353;28;20029;-72
2022/09/16 14:07:44;;;;;;;3.53;0.95;;;;;;;;;;5033163;28;20056;-70
2022/09/16 14:10:22;;;;;;;2.13;0.60;;;;;;;;;;5033056;28;20029;-72
2022/09/16 14:13:10;;;;;;;4.32;0.77;;;;;;;;;;5033221;28;20029;-72
2022/09/16 14:16:07;;;;;;;4.30;1.00;;;;;;;;;;5032728;28;20482;-68
2022/09/16 14:18:33;;;;;;;5.05;1.00;;;;;;;;;;5028176;28;20037;-70
2022/09/16 14:21:05;;;;;;;5.82;1.20;;;;;;;;;;5035709;28;20033;-67
2022/09/16 14:23:32;;;;;;;4.47;0.80;;;;;;;;;;5052747;28;20075;-72
2022/09/16 14:26:21;;;;;;;2.58;0.70;;;;;;;;;;5052796;28;20025;-69
2022/09/16 14:28:47;;;;;;;5.78;0.93;;;;;;;;;;5052783;28;20031;-67
2022/09/16 14:31:18;;;;;;;3.35;1.00;;;;;;;;;;5052633;28;20029;-68
2022/09/16 14:33:50;;;;;;;5.00;1.30;;;;;;;;;;5052786;28;20491;-68
2022/09/16 14:36:28;;;;;;;4.43;1.02;;;;;;;;;;5052765;28;20025;-69
2022/09/16 14:39:07;;;;;;;2.78;0.82;;;;;;;;;;5051648;28;20455;-74
2022/09/16 14:41:44;;;;;;;5.10;0.90;;;;;;;;;;5052429;28;20119;-73
2022/09/16 14:44:18;;;;;;;5.50;1.02;;;;;;;;;;5052610;28;20025;-69
2022/09/16 14:46:47;;;;;;;3.47;0.98;;;;;;;;;;5052615;28;20029;-71
2022/09/16 14:49:14;;;;;;;3.50;1.30;;;;;;;;;;5051422;28;20036;-68
2022/09/16 14:51:47;;;;;;;3.95;1.00;;;;;;;;;;5052659;28;20025;-69
2022/09/16 14:54:21;;;;;;;4.93;1.17;;;;;;;;;;5052468;28;20316;-72
2022/09/16 14:56:59;;;;;;;5.60;1.10;;;;;;;;;;5052409;28;20036;-69
2022/09/16 14:59:28;;;;;;;8.25;1.00;;;;;;;;;;5052401;28;20028;-70
2022/09/16 15:01:56;;;;;;;4.18;0.90;;;;;;;;;;5052694;28;20025;-72
2022/09/16 15:04:28;;;;;;;5.00;0.73;;;;;;;;;;5052461;28;20032;-68
2022/09/16 15:07:00;;;;;;;5.03;1.05;;;;;;;;;;5052460;28;20462;-70
2022/09/16 15:09:29;;;;;;;3.38;0.70;;;;;;;;;;5052617;28;20021;-68
2022/09/16 15:11:58;;;;;;;4.30;0.93;;;;;;;;;;5052347;28;20432;-69
2022/09/16 15:14:25;;;;;;;2.80;0.70;;;;;;;;;;5051977;28;20355;-68
2022/09/16 15:16:56;;;;;;;5.32;0.90;;;;;;;;;;5052324;28;20378;-68
2022/09/16 15:19:38;;;;;;;4.70;1.00;;;;;;;;;;5052306;28;20525;-71